Latest Weather Observations for Cape Ferguson

IDQ60801

Issued at 7:32 pm EST Sunday 29 March 2020 (issued every 10 minutes, with the page automatically refreshed every 10 minutes)

About weather observations | Map of weather stations | Latest weather observations for QLD | Other Formats
Station Details ID: 032182 Name: CAPE FERGUSON NTC AWS Lat: -19.28 Lon: 147.06 Height: 0.0 m
Data from the previous 72 hours. | See also: Recent months for locations in Queensland
Date/Time
EST
Temp
°C
App
Temp
°C
Dew
Point
°C
Rel
Hum
%
Delta-T
°C
Wind Press
QNH
hPa
Press
MSL
hPa
Rain since
9am
mm
Dir  Spd
km/h
Gust
km/h
Spd
kts
Gust
kts
29/07:30pm 27.4 - - - - E 26 32 14 17 1013.0 1013.0 -
29/07:00pm 27.4 - - - - E 26 32 14 17 1012.5 1012.5 -
29/06:30pm 27.4 - - - - E 30 33 16 18 1012.4 1012.4 -
29/06:00pm 27.4 - - - - E 30 35 16 19 1012.0 1012.0 -
29/05:30pm 27.5 - - - - E 28 33 15 18 1011.8 1011.8 -
29/05:00pm 27.5 - - - - E 28 33 15 18 1011.7 1011.7 -
29/04:30pm 27.4 - - - - E 28 35 15 19 1011.4 1011.4 -
29/04:00pm 27.5 - - - - E 32 37 17 20 1011.3 1011.3 -
29/03:30pm 27.5 - - - - E 32 39 17 21 1011.3 1011.3 -
29/03:00pm 27.4 - - - - E 32 41 17 22 1011.5 1011.5 -
29/02:30pm 27.3 - - - - E 33 39 18 21 1011.6 1011.6 -
29/02:00pm 27.3 - - - - E 32 39 17 21 1011.9 1011.9 -
29/01:30pm 26.3 - - - - E 30 37 16 20 1012.0 1012.0 -
29/01:00pm 27.0 - - - - E 33 41 18 22 1012.5 1012.5 -
29/12:30pm 27.1 - - - - E 28 33 15 18 1012.6 1012.6 -
29/12:00pm 27.1 - - - - ESE 26 32 14 17 1012.8 1012.8 -
29/11:30am 27.2 - - - - ESE 22 30 12 16 1013.2 1013.2 -
29/11:00am 26.6 - - - - ESE 13 20 7 11 1013.2 1013.2 -
29/10:30am 26.1 - - - - ESE 19 22 10 12 1013.5 1013.5 -
29/10:00am 25.9 - - - - SE 22 32 12 17 1013.9 1013.9 -
29/09:30am 25.7 - - - - SE 22 28 12 15 1013.8 1013.8 -
29/09:00am 25.6 - - - - SE 22 28 12 15 1013.6 1013.6 -
29/08:30am 25.1 - - - - SSE 20 26 11 14 1013.4 1013.4 -
29/08:00am 25.2 - - - - SSE 24 32 13 17 1013.0 1013.0 -
29/07:30am 25.3 - - - - SSE 22 28 12 15 1012.8 1012.8 -
29/07:00am 25.1 - - - - SSE 20 26 11 14 1012.5 1012.5 -
29/06:30am 24.9 - - - - SSE 17 20 9 11 1012.1 1012.1 -
29/06:00am 25.0 - - - - SE 19 24 10 13 1012.0 1012.0 -
29/05:30am 24.9 - - - - SE 22 28 12 15 1012.0 1012.0 -
29/05:00am 24.9 - - - - SSE 22 28 12 15 1011.7 1011.7 -
29/04:30am 24.9 - - - - SSE 20 26 11 14 1011.1 1011.1 -
29/04:00am 25.1 - - - - SSE 20 26 11 14 1011.0 1011.0 -
29/03:30am 25.1 - - - - SSE 20 28 11 15 1011.1 1011.1 -
29/03:00am 25.2 - - - - S 20 26 11 14 1011.2 1011.2 -
29/02:30am 25.4 - - - - SSE 20 26 11 14 1011.4 1011.4 -
29/02:00am 25.4 - - - - SSE 22 26 12 14 1011.8 1011.8 -
29/01:30am 25.4 - - - - SSE 17 20 9 11 1011.8 1011.8 -
29/01:00am 25.6 - - - - SSE 15 20 8 11 1012.3 1012.3 -
29/12:30am 25.7 - - - - SSE 19 22 10 12 1012.7 1012.7 -
29/12:00am 25.8 - - - - SSE 17 20 9 11 1013.0 1013.0 -
 
Date/Time
EST
Temp
°C
App
Temp
°C
Dew
Point
°C
Rel
Hum
%
Delta-T
°C
Wind Press
QNH
hPa
Press
MSL
hPa
Rain since
9am
mm
Dir  Spd
km/h
Gust
km/h
Spd
kts
Gust
kts
28/11:30pm 26.1 - - - - SSE 15 19 8 10 1013.0 1013.0 -
28/11:00pm 26.0 - - - - SSE 15 19 8 10 1013.3 1013.3 -
28/10:30pm 26.1 - - - - SSE 13 15 7 8 1013.4 1013.4 -
28/10:00pm 26.1 - - - - SSE 11 15 6 8 1013.3 1013.3 -
28/09:30pm 26.2 - - - - SE 15 19 8 10 1013.1 1013.1 -
28/09:00pm 26.9 - - - - ESE 28 35 15 19 1013.2 1013.2 -
28/08:30pm 26.9 - - - - E 26 33 14 18 1012.8 1012.8 -
28/08:00pm 26.9 - - - - ESE 28 33 15 18 1012.7 1012.7 -
28/07:30pm 26.9 - - - - E 33 37 18 20 1012.4 1012.4 -
28/07:00pm 27.1 - - - - E 32 39 17 21 1012.5 1012.5 -
28/06:30pm 26.8 - - - - E 32 37 17 20 1012.1 1012.1 -
28/06:00pm 27.0 - - - - E 32 39 17 21 1012.1 1012.1 -
28/05:30pm 27.1 - - - - ESE 30 37 16 20 1011.7 1011.7 -
28/05:00pm 27.1 - - - - ESE 33 43 18 23 1011.4 1011.4 -
28/04:30pm 27.1 - - - - E 33 41 18 22 1011.1 1011.1 -
28/04:00pm 26.9 - - - - ESE 22 30 12 16 1011.0 1011.0 -
28/03:30pm 25.8 - - - - ESE 7 9 4 5 1010.8 1010.8 -
28/03:00pm 25.1 - - - - WNW 2 7 1 4 1011.0 1011.0 -
28/02:30pm 24.5 - - - - SE 9 17 5 9 1011.6 1011.6 -
28/02:00pm 24.2 - - - - ESE 20 32 11 17 1012.5 1012.5 -
28/01:30pm 24.9 - - - - SSE 13 17 7 9 1012.4 1012.4 -
28/01:00pm 24.5 - - - - SSE 13 19 7 10 1012.7 1012.7 -
28/12:30pm 24.4 - - - - ESE 22 26 12 14 1013.2 1013.2 -
28/12:00pm 23.7 - - - - ESE 35 46 19 25 1014.0 1014.0 -
28/11:30am 24.4 - - - - ESE 33 46 18 25 1014.2 1014.2 -
28/11:00am 24.6 - - - - ESE 22 30 12 16 1014.2 1014.2 -
28/10:30am 23.6 - - - - ESE 37 50 20 27 1014.9 1014.9 -
28/10:26am 24.4 - - - - ESE 33 46 18 25 1014.9 1014.9 -
28/10:00am 25.4 - - - - ESE 22 28 12 15 1014.1 1014.1 -
28/09:30am 25.7 - - - - ESE 28 33 15 18 1014.4 1014.4 -
28/09:00am 25.9 - - - - SE 26 33 14 18 1013.9 1013.9 -
28/08:30am 25.4 - - - - SE 28 33 15 18 1013.5 1013.5 -
28/08:00am 25.3 - - - - SSE 30 35 16 19 1012.9 1012.9 -
28/07:30am 25.2 - - - - SSE 26 37 14 20 1012.6 1012.6 -
28/07:00am 25.4 - - - - SE 24 33 13 18 1012.4 1012.4 -
28/06:30am 25.4 - - - - SSE 26 32 14 17 1011.8 1011.8 -
28/06:00am 25.3 - - - - SSE 28 32 15 17 1011.8 1011.8 -
28/05:30am 25.3 - - - - SSE 26 32 14 17 1011.6 1011.6 -
28/05:00am 25.4 - - - - SSE 24 32 13 17 1011.5 1011.5 -
28/04:30am 25.2 - - - - SSE 24 32 13 17 1011.5 1011.5 -
28/04:00am 25.2 - - - - SSE 24 30 13 16 1011.5 1011.5 -
28/03:30am 25.0 - - - - SSE 26 32 14 17 1011.6 1011.6 -
28/03:00am 25.0 - - - - SSE 22 28 12 15 1011.8 1011.8 -
28/02:30am 24.9 - - - - SSE 22 28 12 15 1012.2 1012.2 -
28/02:00am 24.8 - - - - SSE 20 26 11 14 1012.4 1012.4 -
28/01:30am 24.8 - - - - SSE 20 26 11 14 1012.7 1012.7 -
28/01:00am 25.1 - - - - SSE 19 22 10 12 1013.1 1013.1 -
28/12:30am 25.1 - - - - SSE 26 32 14 17 1013.4 1013.4 -
28/12:00am 25.3 - - - - SSE 24 28 13 15 1013.5 1013.5 -
 
Date/Time
EST
Temp
°C
App
Temp
°C
Dew
Point
°C
Rel
Hum
%
Delta-T
°C
Wind Press
QNH
hPa
Press
MSL
hPa
Rain since
9am
mm
Dir  Spd
km/h
Gust
km/h
Spd
kts
Gust
kts
27/11:30pm 25.6 - - - - SE 26 32 14 17 1013.8 1013.8 -
27/11:00pm 26.0 - - - - SE 28 32 15 17 1014.1 1014.1 -
27/10:30pm 26.5 - - - - SE 28 33 15 18 1014.3 1014.3 -
27/10:00pm 27.2 - - - - ESE 30 35 16 19 1014.3 1014.3 -
27/09:30pm 27.2 - - - - ESE 28 35 15 19 1014.2 1014.2 -
27/09:00pm 27.3 - - - - ESE 26 32 14 17 1014.1 1014.1 -
27/08:30pm 27.4 - - - - E 24 28 13 15 1013.8 1013.8 -
27/08:00pm 27.4 - - - - E 22 26 12 14 1013.5 1013.5 -
27/07:30pm 27.4 - - - - E 22 24 12 13 1013.2 1013.2 -
27/07:00pm 27.3 - - - - E 19 22 10 12 1012.8 1012.8 -
27/06:30pm 27.3 - - - - E 19 22 10 12 1012.4 1012.4 -
27/06:00pm 27.3 - - - - E 19 22 10 12 1012.2 1012.2 -
27/05:30pm 27.4 - - - - E 19 22 10 12 1011.8 1011.8 -
27/05:00pm 27.3 - - - - E 19 22 10 12 1011.8 1011.8 -
27/04:30pm 27.2 - - - - E 20 22 11 12 1011.9 1011.9 -
27/04:00pm 27.3 - - - - E 19 20 10 11 1011.9 1011.9 -
27/03:30pm 27.3 - - - - E 17 20 9 11 1012.1 1012.1 -
27/03:00pm 27.2 - - - - E 19 22 10 12 1012.3 1012.3 -
27/02:30pm 27.2 - - - - E 22 26 12 14 1012.5 1012.5 -
27/02:00pm 27.1 - - - - E 24 28 13 15 1012.9 1012.9 -
27/01:30pm 27.1 - - - - E 24 28 13 15 1013.3 1013.3 -
27/01:00pm 27.1 - - - - E 24 30 13 16 1013.7 1013.7 -
27/12:30pm 27.1 - - - - E 24 28 13 15 1014.2 1014.2 -
27/12:00pm 27.0 - - - - E 20 24 11 13 1014.5 1014.5 -
27/11:30am 26.9 - - - - ESE 17 22 9 12 1014.8 1014.8 -
27/11:00am 26.6 - - - - SE 19 22 10 12 1014.9 1014.9 -
27/10:30am 26.5 - - - - SE 20 24 11 13 1015.1 1015.1 -
27/10:00am 26.0 - - - - SE 19 24 10 13 1015.0 1015.0 -
27/09:30am 25.7 - - - - SSE 22 28 12 15 1015.2 1015.2 -
27/09:00am 25.5 - - - - SSE 20 26 11 14 1015.1 1015.1 -
27/08:30am 25.1 - - - - SSE 22 28 12 15 1014.9 1014.9 -
27/08:00am 25.0 - - - - SSE 19 24 10 13 1014.6 1014.6 -
27/07:30am 24.9 - - - - SSE 19 22 10 12 1014.3 1014.3 -
27/07:00am 25.0 - - - - SSE 20 24 11 13 1014.1 1014.1 -
27/06:30am 24.7 - - - - SSE 22 26 12 14 1013.8 1013.8 -
27/06:00am 24.7 - - - - S 19 22 10 12 1013.5 1013.5 -
27/05:30am 24.7 - - - - SSE 20 26 11 14 1013.3 1013.3 -
27/05:00am 24.7 - - - - SSE 20 24 11 13 1013.2 1013.2 -
27/04:30am 24.9 - - - - SSE 20 24 11 13 1013.0 1013.0 -
27/04:00am 25.1 - - - - SSE 20 24 11 13 1012.9 1012.9 -
27/03:30am 25.3 - - - - SE 20 24 11 13 1012.8 1012.8 -
27/03:00am 25.2 - - - - SSE 15 19 8 10 1013.2 1013.2 -
27/02:30am 25.1 - - - - SSE 15 19 8 10 1013.4 1013.4 -
27/02:00am 25.2 - - - - S 15 19 8 10 1013.6 1013.6 -
27/01:30am 25.5 - - - - S 17 20 9 11 1013.8 1013.8 -
27/01:00am 25.6 - - - - S 17 22 9 12 1014.1 1014.1 -
27/12:30am 25.9 - - - - SSE 17 24 9 13 1014.4 1014.4 -
27/12:00am 26.1 - - - - SSE 17 20 9 11 1014.5 1014.5 -
 
Date/Time
EST
Temp
°C
App
Temp
°C
Dew
Point
°C
Rel
Hum
%
Delta-T
°C
Wind Press
QNH
hPa
Press
MSL
hPa
Rain since
9am
mm
Dir  Spd
km/h
Gust
km/h
Spd
kts
Gust
kts
26/11:30pm 26.2 - - - - SSE 15 20 8 11 1014.5 1014.5 -
26/11:00pm 26.8 - - - - ESE 24 32 13 17 1014.7 1014.7 -
26/10:30pm 27.1 - - - - ESE 28 33 15 18 1014.8 1014.8 -
26/10:00pm 27.2 - - - - E 30 37 16 20 1015.0 1015.0 -
26/09:30pm 27.2 - - - - E 30 37 16 20 1014.9 1014.9 -
26/09:00pm 27.3 - - - - E 32 39 17 21 1014.7 1014.7 -
26/08:30pm 27.4 - - - - E 30 35 16 19 1014.4 1014.4 -
26/08:00pm 27.4 - - - - E 30 35 16 19 1014.2 1014.2 -

Other formats

Comma delimited format used in spreadsheet applications
http://www.bom.gov.au/fwo/IDQ60801/IDQ60801.94297.axf

JavaScript Object Notation format (JSON) in row-major order
http://www.bom.gov.au/fwo/IDQ60801/IDQ60801.94297.json

Data quality

Most of these data are generated automatically and are frequently updated. Quality checks on data are not normally performed. It is possible for incorrect values to appear. Refer to information at About Latest Weather Observations and please check the disclaimer before using these data.